sensor_id;sensor_type;location;lat;lon;timestamp;P1;durP1;ratioP1;P2;durP2;ratioP2
61704;SDS011;47627;48.078;11.522;2023-04-03T00:00:49;18.77;;;13.57;;
61704;SDS011;47627;48.078;11.522;2023-04-03T00:03:15;14.52;;;12.20;;
61704;SDS011;47627;48.078;11.522;2023-04-03T00:05:41;15.77;;;12.55;;
61704;SDS011;47627;48.078;11.522;2023-04-03T00:08:06;16.48;;;12.60;;
61704;SDS011;47627;48.078;11.522;2023-04-03T00:10:33;15.88;;;13.15;;
61704;SDS011;47627;48.078;11.522;2023-04-03T00:12:58;16.15;;;12.90;;
61704;SDS011;47627;48.078;11.522;2023-04-03T00:15:23;15.70;;;12.32;;
61704;SDS011;47627;48.078;11.522;2023-04-03T00:17:49;18.58;;;12.65;;
61704;SDS011;47627;48.078;11.522;2023-04-03T00:20:14;18.40;;;12.98;;
61704;SDS011;47627;48.078;11.522;2023-04-03T00:22:39;17.83;;;12.88;;
61704;SDS011;47627;48.078;11.522;2023-04-03T00:25:05;16.70;;;12.88;;
61704;SDS011;47627;48.078;11.522;2023-04-03T00:27:30;15.73;;;12.68;;
61704;SDS011;47627;48.078;11.522;2023-04-03T00:29:55;16.33;;;12.25;;
61704;SDS011;47627;48.078;11.522;2023-04-03T00:32:20;15.85;;;12.90;;
61704;SDS011;47627;48.078;11.522;2023-04-03T00:34:46;15.80;;;12.98;;
61704;SDS011;47627;48.078;11.522;2023-04-03T00:37:11;18.52;;;12.80;;
61704;SDS011;47627;48.078;11.522;2023-04-03T00:39:36;18.65;;;14.75;;
61704;SDS011;47627;48.078;11.522;2023-04-03T00:42:01;17.90;;;12.93;;
61704;SDS011;47627;48.078;11.522;2023-04-03T00:46:58;16.52;;;13.38;;
61704;SDS011;47627;48.078;11.522;2023-04-03T00:49:24;17.67;;;13.13;;
61704;SDS011;47627;48.078;11.522;2023-04-03T00:51:49;15.45;;;12.80;;
61704;SDS011;47627;48.078;11.522;2023-04-03T00:54:14;15.80;;;12.43;;
61704;SDS011;47627;48.078;11.522;2023-04-03T00:56:40;14.07;;;11.88;;
61704;SDS011;47627;48.078;11.522;2023-04-03T00:59:08;14.23;;;12.35;;
61704;SDS011;47627;48.078;11.522;2023-04-03T01:01:34;15.85;;;13.02;;
61704;SDS011;47627;48.078;11.522;2023-04-03T01:04:00;14.88;;;11.60;;
61704;SDS011;47627;48.078;11.522;2023-04-03T01:06:28;18.30;;;12.20;;
61704;SDS011;47627;48.078;11.522;2023-04-03T01:09:02;13.52;;;12.07;;
61704;SDS011;47627;48.078;11.522;2023-04-03T01:11:28;16.25;;;12.80;;
61704;SDS011;47627;48.078;11.522;2023-04-03T01:13:53;15.18;;;13.32;;
61704;SDS011;47627;48.078;11.522;2023-04-03T01:16:19;15.88;;;12.98;;
61704;SDS011;47627;48.078;11.522;2023-04-03T01:18:45;15.18;;;12.90;;
61704;SDS011;47627;48.078;11.522;2023-04-03T01:21:36;14.95;;;12.40;;
61704;SDS011;47627;48.078;11.522;2023-04-03T01:24:16;14.00;;;12.43;;
61704;SDS011;47627;48.078;11.522;2023-04-03T01:26:44;12.68;;;10.65;;
61704;SDS011;47627;48.078;11.522;2023-04-03T01:29:10;12.88;;;11.00;;
61704;SDS011;47627;48.078;11.522;2023-04-03T01:34:10;14.75;;;12.25;;
61704;SDS011;47627;48.078;11.522;2023-04-03T01:36:36;13.88;;;11.60;;
61704;SDS011;47627;48.078;11.522;2023-04-03T01:39:02;14.00;;;11.73;;
61704;SDS011;47627;48.078;11.522;2023-04-03T01:41:28;14.55;;;11.60;;
61704;SDS011;47627;48.078;11.522;2023-04-03T01:43:59;11.80;;;10.57;;
61704;SDS011;47627;48.078;11.522;2023-04-03T01:46:25;13.10;;;10.93;;
61704;SDS011;47627;48.078;11.522;2023-04-03T01:48:50;17.20;;;12.07;;
61704;SDS011;47627;48.078;11.522;2023-04-03T01:51:15;12.60;;;11.15;;
61704;SDS011;47627;48.078;11.522;2023-04-03T01:53:41;15.73;;;11.60;;
61704;SDS011;47627;48.078;11.522;2023-04-03T01:56:06;14.38;;;11.50;;
61704;SDS011;47627;48.078;11.522;2023-04-03T01:58:32;13.63;;;11.18;;
61704;SDS011;47627;48.078;11.522;2023-04-03T02:00:58;13.18;;;11.27;;
61704;SDS011;47627;48.078;11.522;2023-04-03T02:03:23;13.70;;;11.75;;
61704;SDS011;47627;48.078;11.522;2023-04-03T02:05:49;16.60;;;13.35;;
61704;SDS011;47627;48.078;11.522;2023-04-03T02:08:15;15.13;;;12.38;;
61704;SDS011;47627;48.078;11.522;2023-04-03T02:10:42;14.70;;;11.48;;
61704;SDS011;47627;48.078;11.522;2023-04-03T02:13:08;16.02;;;11.50;;
61704;SDS011;47627;48.078;11.522;2023-04-03T02:15:34;16.98;;;11.48;;
61704;SDS011;47627;48.078;11.522;2023-04-03T02:17:59;15.95;;;12.40;;
61704;SDS011;47627;48.078;11.522;2023-04-03T02:20:25;14.73;;;11.55;;
61704;SDS011;47627;48.078;11.522;2023-04-03T02:22:51;12.65;;;11.13;;
61704;SDS011;47627;48.078;11.522;2023-04-03T02:25:16;14.05;;;11.68;;
61704;SDS011;47627;48.078;11.522;2023-04-03T02:27:42;19.08;;;14.88;;
61704;SDS011;47627;48.078;11.522;2023-04-03T02:30:08;14.27;;;12.13;;
61704;SDS011;47627;48.078;11.522;2023-04-03T02:32:35;14.48;;;11.70;;
61704;SDS011;47627;48.078;11.522;2023-04-03T02:35:01;13.02;;;11.63;;
61704;SDS011;47627;48.078;11.522;2023-04-03T02:37:26;15.52;;;12.13;;
61704;SDS011;47627;48.078;11.522;2023-04-03T02:39:53;15.68;;;12.02;;
61704;SDS011;47627;48.078;11.522;2023-04-03T02:42:18;14.57;;;12.13;;
61704;SDS011;47627;48.078;11.522;2023-04-03T02:44:43;13.40;;;11.05;;
61704;SDS011;47627;48.078;11.522;2023-04-03T02:47:09;13.68;;;11.45;;
61704;SDS011;47627;48.078;11.522;2023-04-03T02:49:34;14.40;;;11.50;;
61704;SDS011;47627;48.078;11.522;2023-04-03T02:52:00;14.02;;;11.43;;
61704;SDS011;47627;48.078;11.522;2023-04-03T02:54:25;17.08;;;12.52;;
61704;SDS011;47627;48.078;11.522;2023-04-03T02:56:54;13.05;;;10.68;;
61704;SDS011;47627;48.078;11.522;2023-04-03T02:59:20;18.45;;;12.25;;
61704;SDS011;47627;48.078;11.522;2023-04-03T03:01:46;12.45;;;10.45;;
61704;SDS011;47627;48.078;11.522;2023-04-03T03:04:11;12.25;;;10.88;;
61704;SDS011;47627;48.078;11.522;2023-04-03T03:06:36;14.55;;;11.45;;
61704;SDS011;47627;48.078;11.522;2023-04-03T03:09:02;12.23;;;10.70;;
61704;SDS011;47627;48.078;11.522;2023-04-03T03:11:28;12.40;;;10.05;;
61704;SDS011;47627;48.078;11.522;2023-04-03T03:13:53;12.70;;;10.52;;
61704;SDS011;47627;48.078;11.522;2023-04-03T03:16:19;12.18;;;10.50;;
61704;SDS011;47627;48.078;11.522;2023-04-03T03:18:44;11.05;;;9.55;;
61704;SDS011;47627;48.078;11.522;2023-04-03T03:21:10;11.45;;;9.85;;
61704;SDS011;47627;48.078;11.522;2023-04-03T03:23:35;11.05;;;9.85;;
61704;SDS011;47627;48.078;11.522;2023-04-03T03:26:02;10.30;;;9.20;;
61704;SDS011;47627;48.078;11.522;2023-04-03T03:28:28;10.43;;;9.30;;
61704;SDS011;47627;48.078;11.522;2023-04-03T03:30:53;9.90;;;8.82;;
61704;SDS011;47627;48.078;11.522;2023-04-03T03:33:20;12.05;;;10.40;;
61704;SDS011;47627;48.078;11.522;2023-04-03T03:35:45;10.38;;;8.93;;
61704;SDS011;47627;48.078;11.522;2023-04-03T03:38:11;11.38;;;10.07;;
61704;SDS011;47627;48.078;11.522;2023-04-03T03:40:37;11.10;;;8.93;;
61704;SDS011;47627;48.078;11.522;2023-04-03T03:43:02;11.70;;;9.50;;
61704;SDS011;47627;48.078;11.522;2023-04-03T03:45:27;11.05;;;8.55;;
61704;SDS011;47627;48.078;11.522;2023-04-03T03:47:53;8.57;;;7.50;;
61704;SDS011;47627;48.078;11.522;2023-04-03T03:50:18;9.52;;;7.95;;
61704;SDS011;47627;48.078;11.522;2023-04-03T03:52:44;10.48;;;8.30;;
61704;SDS011;47627;48.078;11.522;2023-04-03T03:55:10;10.68;;;7.65;;
61704;SDS011;47627;48.078;11.522;2023-04-03T03:57:36;8.82;;;7.68;;
61704;SDS011;47627;48.078;11.522;2023-04-03T04:00:02;8.38;;;7.28;;
61704;SDS011;47627;48.078;11.522;2023-04-03T04:02:29;7.70;;;6.75;;
61704;SDS011;47627;48.078;11.522;2023-04-03T04:04:54;7.80;;;6.75;;
61704;SDS011;47627;48.078;11.522;2023-04-03T04:07:20;7.25;;;6.53;;
61704;SDS011;47627;48.078;11.522;2023-04-03T04:09:45;8.32;;;6.57;;
61704;SDS011;47627;48.078;11.522;2023-04-03T04:12:10;8.00;;;6.93;;
61704;SDS011;47627;48.078;11.522;2023-04-03T04:14:37;9.43;;;7.03;;
61704;SDS011;47627;48.078;11.522;2023-04-03T04:17:03;8.35;;;7.32;;
61704;SDS011;47627;48.078;11.522;2023-04-03T04:19:29;7.45;;;6.47;;
61704;SDS011;47627;48.078;11.522;2023-04-03T04:21:54;7.75;;;6.75;;
61704;SDS011;47627;48.078;11.522;2023-04-03T04:24:19;9.25;;;7.65;;
61704;SDS011;47627;48.078;11.522;2023-04-03T04:26:50;7.88;;;6.80;;
61704;SDS011;47627;48.078;11.522;2023-04-03T04:29:16;8.15;;;6.28;;
61704;SDS011;47627;48.078;11.522;2023-04-03T04:31:45;7.85;;;6.07;;
61704;SDS011;47627;48.078;11.522;2023-04-03T04:34:10;6.28;;;5.68;;
61704;SDS011;47627;48.078;11.522;2023-04-03T04:36:36;8.02;;;5.97;;
61704;SDS011;47627;48.078;11.522;2023-04-03T04:39:02;8.55;;;6.28;;
61704;SDS011;47627;48.078;11.522;2023-04-03T04:41:27;7.00;;;5.90;;
61704;SDS011;47627;48.078;11.522;2023-04-03T04:43:52;7.50;;;6.72;;
61704;SDS011;47627;48.078;11.522;2023-04-03T04:46:27;8.25;;;6.05;;
61704;SDS011;47627;48.078;11.522;2023-04-03T04:48:56;7.15;;;6.38;;
61704;SDS011;47627;48.078;11.522;2023-04-03T04:51:22;7.88;;;6.10;;
61704;SDS011;47627;48.078;11.522;2023-04-03T04:53:48;8.13;;;6.20;;
61704;SDS011;47627;48.078;11.522;2023-04-03T04:56:16;6.78;;;5.85;;
61704;SDS011;47627;48.078;11.522;2023-04-03T04:58:42;6.18;;;5.55;;
61704;SDS011;47627;48.078;11.522;2023-04-03T05:01:08;8.77;;;6.18;;
61704;SDS011;47627;48.078;11.522;2023-04-03T05:03:38;7.63;;;6.10;;
61704;SDS011;47627;48.078;11.522;2023-04-03T05:06:04;6.50;;;5.90;;
61704;SDS011;47627;48.078;11.522;2023-04-03T05:08:31;8.85;;;6.88;;
61704;SDS011;47627;48.078;11.522;2023-04-03T05:10:56;9.10;;;6.20;;
61704;SDS011;47627;48.078;11.522;2023-04-03T05:13:24;6.75;;;5.93;;
61704;SDS011;47627;48.078;11.522;2023-04-03T05:15:49;6.80;;;6.10;;
61704;SDS011;47627;48.078;11.522;2023-04-03T05:18:14;6.10;;;5.45;;
61704;SDS011;47627;48.078;11.522;2023-04-03T05:20:40;7.90;;;6.10;;
61704;SDS011;47627;48.078;11.522;2023-04-03T05:23:06;6.85;;;6.10;;
61704;SDS011;47627;48.078;11.522;2023-04-03T05:25:33;6.80;;;5.93;;
61704;SDS011;47627;48.078;11.522;2023-04-03T05:27:59;7.13;;;5.70;;
61704;SDS011;47627;48.078;11.522;2023-04-03T05:30:24;6.15;;;5.13;;
61704;SDS011;47627;48.078;11.522;2023-04-03T05:32:50;7.57;;;5.72;;
61704;SDS011;47627;48.078;11.522;2023-04-03T05:35:26;7.28;;;5.68;;
61704;SDS011;47627;48.078;11.522;2023-04-03T05:37:55;5.85;;;5.25;;
61704;SDS011;47627;48.078;11.522;2023-04-03T05:40:20;6.55;;;5.57;;
61704;SDS011;47627;48.078;11.522;2023-04-03T05:42:49;7.53;;;5.55;;
61704;SDS011;47627;48.078;11.522;2023-04-03T05:45:16;6.07;;;5.30;;
61704;SDS011;47627;48.078;11.522;2023-04-03T05:47:41;10.48;;;5.40;;
61704;SDS011;47627;48.078;11.522;2023-04-03T05:50:07;6.78;;;5.97;;
61704;SDS011;47627;48.078;11.522;2023-04-03T05:52:36;5.85;;;5.25;;
61704;SDS011;47627;48.078;11.522;2023-04-03T05:55:02;7.55;;;5.85;;
61704;SDS011;47627;48.078;11.522;2023-04-03T05:57:30;8.40;;;6.10;;
61704;SDS011;47627;48.078;11.522;2023-04-03T05:59:55;7.53;;;6.10;;
61704;SDS011;47627;48.078;11.522;2023-04-03T06:02:22;6.95;;;5.50;;
61704;SDS011;47627;48.078;11.522;2023-04-03T06:04:48;6.80;;;5.53;;
61704;SDS011;47627;48.078;11.522;2023-04-03T06:07:14;6.70;;;5.40;;
61704;SDS011;47627;48.078;11.522;2023-04-03T06:09:40;6.47;;;5.40;;
61704;SDS011;47627;48.078;11.522;2023-04-03T06:12:06;6.20;;;5.53;;
61704;SDS011;47627;48.078;11.522;2023-04-03T06:14:31;5.95;;;5.30;;
61704;SDS011;47627;48.078;11.522;2023-04-03T06:16:56;7.53;;;5.20;;
61704;SDS011;47627;48.078;11.522;2023-04-03T06:19:22;5.80;;;5.20;;
61704;SDS011;47627;48.078;11.522;2023-04-03T06:21:51;6.53;;;5.10;;
61704;SDS011;47627;48.078;11.522;2023-04-03T06:24:17;6.65;;;5.35;;
61704;SDS011;47627;48.078;11.522;2023-04-03T06:26:42;9.88;;;5.95;;
61704;SDS011;47627;48.078;11.522;2023-04-03T06:29:08;11.68;;;5.75;;
61704;SDS011;47627;48.078;11.522;2023-04-03T06:31:33;10.38;;;6.20;;
61704;SDS011;47627;48.078;11.522;2023-04-03T06:33:58;7.65;;;5.05;;
61704;SDS011;47627;48.078;11.522;2023-04-03T06:36:24;7.68;;;5.18;;
61704;SDS011;47627;48.078;11.522;2023-04-03T06:38:49;6.97;;;4.93;;
61704;SDS011;47627;48.078;11.522;2023-04-03T06:41:14;6.15;;;5.28;;
61704;SDS011;47627;48.078;11.522;2023-04-03T06:43:41;5.55;;;4.30;;
61704;SDS011;47627;48.078;11.522;2023-04-03T06:46:09;6.47;;;5.72;;
61704;SDS011;47627;48.078;11.522;2023-04-03T06:48:36;6.28;;;4.82;;
61704;SDS011;47627;48.078;11.522;2023-04-03T06:51:01;6.63;;;5.20;;
61704;SDS011;47627;48.078;11.522;2023-04-03T06:53:26;8.02;;;5.55;;
61704;SDS011;47627;48.078;11.522;2023-04-03T06:55:52;8.13;;;5.32;;
61704;SDS011;47627;48.078;11.522;2023-04-03T06:58:17;5.75;;;5.18;;
61704;SDS011;47627;48.078;11.522;2023-04-03T07:00:43;8.48;;;5.50;;
61704;SDS011;47627;48.078;11.522;2023-04-03T07:03:08;6.15;;;5.28;;
61704;SDS011;47627;48.078;11.522;2023-04-03T07:05:33;8.10;;;5.53;;
61704;SDS011;47627;48.078;11.522;2023-04-03T07:07:59;8.77;;;6.68;;
61704;SDS011;47627;48.078;11.522;2023-04-03T07:10:24;6.88;;;5.72;;
61704;SDS011;47627;48.078;11.522;2023-04-03T07:12:49;8.23;;;5.85;;
61704;SDS011;47627;48.078;11.522;2023-04-03T07:15:15;11.35;;;7.10;;
61704;SDS011;47627;48.078;11.522;2023-04-03T07:17:40;17.45;;;9.93;;
61704;SDS011;47627;48.078;11.522;2023-04-03T07:20:06;13.50;;;8.63;;
61704;SDS011;47627;48.078;11.522;2023-04-03T07:22:31;9.93;;;7.50;;
61704;SDS011;47627;48.078;11.522;2023-04-03T07:24:56;8.25;;;5.88;;
61704;SDS011;47627;48.078;11.522;2023-04-03T07:27:22;17.17;;;9.02;;
61704;SDS011;47627;48.078;11.522;2023-04-03T07:29:47;8.48;;;6.28;;
61704;SDS011;47627;48.078;11.522;2023-04-03T07:32:13;14.90;;;9.02;;
61704;SDS011;47627;48.078;11.522;2023-04-03T07:34:39;10.65;;;6.90;;
61704;SDS011;47627;48.078;11.522;2023-04-03T07:37:04;15.23;;;9.68;;
61704;SDS011;47627;48.078;11.522;2023-04-03T07:39:29;11.93;;;8.10;;
61704;SDS011;47627;48.078;11.522;2023-04-03T07:41:55;12.05;;;7.25;;
61704;SDS011;47627;48.078;11.522;2023-04-03T07:44:23;7.43;;;6.10;;
61704;SDS011;47627;48.078;11.522;2023-04-03T07:46:48;8.57;;;5.82;;
61704;SDS011;47627;48.078;11.522;2023-04-03T07:49:15;8.73;;;5.30;;
61704;SDS011;47627;48.078;11.522;2023-04-03T07:51:43;6.45;;;5.18;;
61704;SDS011;47627;48.078;11.522;2023-04-03T07:54:08;29.85;;;9.77;;
61704;SDS011;47627;48.078;11.522;2023-04-03T07:56:33;18.20;;;7.70;;
61704;SDS011;47627;48.078;11.522;2023-04-03T07:58:58;8.50;;;5.88;;
61704;SDS011;47627;48.078;11.522;2023-04-03T08:01:23;9.07;;;5.82;;
61704;SDS011;47627;48.078;11.522;2023-04-03T08:03:49;7.13;;;5.32;;
61704;SDS011;47627;48.078;11.522;2023-04-03T08:06:14;9.77;;;5.93;;
61704;SDS011;47627;48.078;11.522;2023-04-03T08:08:40;6.72;;;5.40;;
61704;SDS011;47627;48.078;11.522;2023-04-03T08:11:06;7.22;;;6.38;;
61704;SDS011;47627;48.078;11.522;2023-04-03T08:13:33;14.30;;;9.32;;
61704;SDS011;47627;48.078;11.522;2023-04-03T08:16:06;15.82;;;9.45;;
61704;SDS011;47627;48.078;11.522;2023-04-03T08:18:32;9.63;;;7.27;;
61704;SDS011;47627;48.078;11.522;2023-04-03T08:20:57;7.75;;;6.13;;
61704;SDS011;47627;48.078;11.522;2023-04-03T08:23:22;9.05;;;6.82;;
61704;SDS011;47627;48.078;11.522;2023-04-03T08:25:48;33.17;;;17.15;;
61704;SDS011;47627;48.078;11.522;2023-04-03T08:28:13;27.67;;;13.52;;
61704;SDS011;47627;48.078;11.522;2023-04-03T08:30:39;26.35;;;16.48;;
61704;SDS011;47627;48.078;11.522;2023-04-03T08:33:04;25.17;;;13.40;;
61704;SDS011;47627;48.078;11.522;2023-04-03T08:35:31;20.58;;;12.82;;
61704;SDS011;47627;48.078;11.522;2023-04-03T08:37:56;21.58;;;12.43;;
61704;SDS011;47627;48.078;11.522;2023-04-03T08:40:21;20.83;;;12.73;;
61704;SDS011;47627;48.078;11.522;2023-04-03T08:48:06;8.48;;;7.38;;
61704;SDS011;47627;48.078;11.522;2023-04-03T08:50:39;8.35;;;6.60;;
61704;SDS011;47627;48.078;11.522;2023-04-03T08:53:06;9.90;;;6.10;;
61704;SDS011;47627;48.078;11.522;2023-04-03T08:55:48;69.40;;;17.52;;
61704;SDS011;47627;48.078;11.522;2023-04-03T08:58:27;15.90;;;7.43;;
61704;SDS011;47627;48.078;11.522;2023-04-03T09:03:19;22.55;;;12.23;;
61704;SDS011;47627;48.078;11.522;2023-04-03T09:10:42;8.75;;;6.22;;
61704;SDS011;47627;48.078;11.522;2023-04-03T09:13:18;7.35;;;6.00;;
61704;SDS011;47627;48.078;11.522;2023-04-03T09:15:47;9.45;;;5.85;;
61704;SDS011;47627;48.078;11.522;2023-04-03T09:18:32;7.65;;;5.45;;
61704;SDS011;47627;48.078;11.522;2023-04-03T09:23:46;14.98;;;7.43;;
61704;SDS011;47627;48.078;11.522;2023-04-03T09:26:30;12.05;;;7.00;;
61704;SDS011;47627;48.078;11.522;2023-04-03T09:28:58;8.93;;;6.05;;
61704;SDS011;47627;48.078;11.522;2023-04-03T09:31:46;7.93;;;5.70;;
61704;SDS011;47627;48.078;11.522;2023-04-03T09:37:03;6.97;;;5.43;;
61704;SDS011;47627;48.078;11.522;2023-04-03T09:39:31;9.25;;;6.18;;
61704;SDS011;47627;48.078;11.522;2023-04-03T09:42:05;7.18;;;5.35;;
61704;SDS011;47627;48.078;11.522;2023-04-03T09:44:34;9.13;;;5.70;;
61704;SDS011;47627;48.078;11.522;2023-04-03T09:49:45;7.28;;;5.30;;
61704;SDS011;47627;48.078;11.522;2023-04-03T09:52:22;7.93;;;4.80;;
61704;SDS011;47627;48.078;11.522;2023-04-03T09:54:47;8.07;;;5.40;;
61704;SDS011;47627;48.078;11.522;2023-04-03T09:57:13;12.35;;;6.30;;
61704;SDS011;47627;48.078;11.522;2023-04-03T09:59:56;7.50;;;5.70;;
61704;SDS011;47627;48.078;11.522;2023-04-03T10:02:28;6.03;;;5.07;;
61704;SDS011;47627;48.078;11.522;2023-04-03T10:04:56;6.20;;;5.22;;
61704;SDS011;47627;48.078;11.522;2023-04-03T10:07:26;9.75;;;5.40;;
61704;SDS011;47627;48.078;11.522;2023-04-03T10:10:03;6.07;;;5.47;;
61704;SDS011;47627;48.078;11.522;2023-04-03T10:12:28;6.07;;;5.03;;
61704;SDS011;47627;48.078;11.522;2023-04-03T10:14:58;6.22;;;5.22;;
61704;SDS011;47627;48.078;11.522;2023-04-03T10:19:58;9.30;;;5.10;;
61704;SDS011;47627;48.078;11.522;2023-04-03T10:27:27;7.47;;;4.75;;
61704;SDS011;47627;48.078;11.522;2023-04-03T10:30:04;6.28;;;5.20;;
61704;SDS011;47627;48.078;11.522;2023-04-03T10:35:11;7.22;;;5.63;;
61704;SDS011;47627;48.078;11.522;2023-04-03T10:42:46;8.23;;;6.40;;
61704;SDS011;47627;48.078;11.522;2023-04-03T10:48:26;7.20;;;6.50;;
61704;SDS011;47627;48.078;11.522;2023-04-03T10:50:39;7.75;;;6.18;;
61704;SDS011;47627;48.078;11.522;2023-04-03T10:58:29;12.52;;;7.70;;
61704;SDS011;47627;48.078;11.522;2023-04-03T11:00:56;7.18;;;5.72;;
61704;SDS011;47627;48.078;11.522;2023-04-03T11:03:41;6.65;;;5.28;;
61704;SDS011;47627;48.078;11.522;2023-04-03T11:06:09;7.55;;;5.28;;
61704;SDS011;47627;48.078;11.522;2023-04-03T11:08:38;5.65;;;4.72;;
61704;SDS011;47627;48.078;11.522;2023-04-03T11:11:20;5.40;;;4.38;;
61704;SDS011;47627;48.078;11.522;2023-04-03T11:16:25;9.50;;;5.03;;
61704;SDS011;47627;48.078;11.522;2023-04-03T11:18:56;5.10;;;4.60;;
61704;SDS011;47627;48.078;11.522;2023-04-03T11:21:25;7.63;;;4.47;;
61704;SDS011;47627;48.078;11.522;2023-04-03T11:23:52;6.00;;;4.53;;
61704;SDS011;47627;48.078;11.522;2023-04-03T11:26:20;12.43;;;7.20;;
61704;SDS011;47627;48.078;11.522;2023-04-03T11:28:47;11.60;;;6.75;;
61704;SDS011;47627;48.078;11.522;2023-04-03T11:33:54;5.82;;;4.53;;
61704;SDS011;47627;48.078;11.522;2023-04-03T11:36:28;5.13;;;4.35;;
61704;SDS011;47627;48.078;11.522;2023-04-03T11:38:56;14.77;;;9.10;;
61704;SDS011;47627;48.078;11.522;2023-04-03T11:41:30;10.40;;;5.65;;
61704;SDS011;47627;48.078;11.522;2023-04-03T11:43:59;7.68;;;4.43;;
61704;SDS011;47627;48.078;11.522;2023-04-03T11:52:07;23.13;;;10.90;;
61704;SDS011;47627;48.078;11.522;2023-04-03T11:54:35;21.08;;;10.80;;
61704;SDS011;47627;48.078;11.522;2023-04-03T11:57:01;23.27;;;12.27;;
61704;SDS011;47627;48.078;11.522;2023-04-03T11:59:45;15.25;;;7.60;;
61704;SDS011;47627;48.078;11.522;2023-04-03T12:02:35;16.05;;;8.25;;
61704;SDS011;47627;48.078;11.522;2023-04-03T12:07:52;16.17;;;8.77;;
61704;SDS011;47627;48.078;11.522;2023-04-03T12:10:30;6.78;;;3.60;;
61704;SDS011;47627;48.078;11.522;2023-04-03T12:12:56;5.80;;;3.63;;
61704;SDS011;47627;48.078;11.522;2023-04-03T12:15:38;7.88;;;4.80;;
61704;SDS011;47627;48.078;11.522;2023-04-03T12:23:23;6.20;;;4.15;;
61704;SDS011;47627;48.078;11.522;2023-04-03T12:25:49;9.43;;;4.10;;
61704;SDS011;47627;48.078;11.522;2023-04-03T12:28:15;8.00;;;4.30;;
61704;SDS011;47627;48.078;11.522;2023-04-03T12:30:41;5.25;;;3.63;;
61704;SDS011;47627;48.078;11.522;2023-04-03T12:35:37;29.13;;;7.20;;
61704;SDS011;47627;48.078;11.522;2023-04-03T12:38:16;6.55;;;3.92;;
61704;SDS011;47627;48.078;11.522;2023-04-03T12:40:48;4.57;;;3.00;;
61704;SDS011;47627;48.078;11.522;2023-04-03T12:45:47;6.70;;;3.45;;
61704;SDS011;47627;48.078;11.522;2023-04-03T12:48:18;6.07;;;3.20;;
61704;SDS011;47627;48.078;11.522;2023-04-03T12:50:46;5.10;;;3.40;;
61704;SDS011;47627;48.078;11.522;2023-04-03T12:53:21;5.38;;;3.35;;
61704;SDS011;47627;48.078;11.522;2023-04-03T12:55:53;5.03;;;3.42;;
61704;SDS011;47627;48.078;11.522;2023-04-03T12:58:22;4.10;;;3.20;;
61704;SDS011;47627;48.078;11.522;2023-04-03T13:00:58;5.60;;;3.03;;
61704;SDS011;47627;48.078;11.522;2023-04-03T13:03:24;5.75;;;3.10;;
61704;SDS011;47627;48.078;11.522;2023-04-03T13:05:51;4.57;;;2.72;;
61704;SDS011;47627;48.078;11.522;2023-04-03T13:08:17;4.20;;;2.78;;
61704;SDS011;47627;48.078;11.522;2023-04-03T13:10:56;4.40;;;2.85;;
61704;SDS011;47627;48.078;11.522;2023-04-03T13:13:23;3.28;;;2.42;;
61704;SDS011;47627;48.078;11.522;2023-04-03T13:15:48;3.28;;;2.60;;
61704;SDS011;47627;48.078;11.522;2023-04-03T13:18:31;4.38;;;2.60;;
61704;SDS011;47627;48.078;11.522;2023-04-03T13:21:19;4.28;;;2.47;;
61704;SDS011;47627;48.078;11.522;2023-04-03T13:23:45;4.28;;;2.55;;
61704;SDS011;47627;48.078;11.522;2023-04-03T13:26:11;3.55;;;2.35;;
61704;SDS011;47627;48.078;11.522;2023-04-03T13:28:37;5.18;;;3.08;;
61704;SDS011;47627;48.078;11.522;2023-04-03T13:33:41;4.65;;;2.40;;
61704;SDS011;47627;48.078;11.522;2023-04-03T13:36:18;5.85;;;2.42;;
61704;SDS011;47627;48.078;11.522;2023-04-03T13:38:44;3.20;;;2.20;;
61704;SDS011;47627;48.078;11.522;2023-04-03T13:43:54;3.65;;;2.30;;
61704;SDS011;47627;48.078;11.522;2023-04-03T13:48:49;3.47;;;2.53;;
61704;SDS011;47627;48.078;11.522;2023-04-03T13:51:26;3.75;;;2.53;;
61704;SDS011;47627;48.078;11.522;2023-04-03T13:53:59;4.18;;;2.72;;
61704;SDS011;47627;48.078;11.522;2023-04-03T13:56:26;4.53;;;2.75;;
61704;SDS011;47627;48.078;11.522;2023-04-03T13:58:53;3.78;;;2.58;;
61704;SDS011;47627;48.078;11.522;2023-04-03T14:01:20;4.30;;;2.33;;
61704;SDS011;47627;48.078;11.522;2023-04-03T14:03:57;3.40;;;1.98;;
61704;SDS011;47627;48.078;11.522;2023-04-03T14:06:23;3.00;;;2.10;;
61704;SDS011;47627;48.078;11.522;2023-04-03T14:08:48;4.72;;;2.70;;
61704;SDS011;47627;48.078;11.522;2023-04-03T14:11:15;3.50;;;2.42;;
61704;SDS011;47627;48.078;11.522;2023-04-03T14:13:41;9.05;;;2.90;;
61704;SDS011;47627;48.078;11.522;2023-04-03T14:16:06;5.05;;;2.95;;
61704;SDS011;47627;48.078;11.522;2023-04-03T14:18:31;5.20;;;2.40;;
61704;SDS011;47627;48.078;11.522;2023-04-03T14:20:57;4.53;;;1.98;;
61704;SDS011;47627;48.078;11.522;2023-04-03T14:23:22;3.03;;;2.10;;
61704;SDS011;47627;48.078;11.522;2023-04-03T14:25:47;4.22;;;2.30;;
61704;SDS011;47627;48.078;11.522;2023-04-03T14:28:17;4.70;;;2.30;;
61704;SDS011;47627;48.078;11.522;2023-04-03T14:30:42;5.25;;;2.28;;
61704;SDS011;47627;48.078;11.522;2023-04-03T14:33:10;3.22;;;1.90;;
61704;SDS011;47627;48.078;11.522;2023-04-03T14:35:36;4.55;;;2.53;;
61704;SDS011;47627;48.078;11.522;2023-04-03T14:38:01;4.35;;;2.17;;
61704;SDS011;47627;48.078;11.522;2023-04-03T14:40:27;5.35;;;2.13;;
61704;SDS011;47627;48.078;11.522;2023-04-03T14:42:53;4.38;;;2.30;;
61704;SDS011;47627;48.078;11.522;2023-04-03T14:45:20;3.03;;;2.08;;
61704;SDS011;47627;48.078;11.522;2023-04-03T14:47:46;5.68;;;2.10;;
61704;SDS011;47627;48.078;11.522;2023-04-03T14:50:18;4.93;;;2.22;;
61704;SDS011;47627;48.078;11.522;2023-04-03T14:52:46;3.00;;;2.15;;
61704;SDS011;47627;48.078;11.522;2023-04-03T14:55:13;4.43;;;1.80;;
61704;SDS011;47627;48.078;11.522;2023-04-03T14:57:39;3.65;;;2.03;;
61704;SDS011;47627;48.078;11.522;2023-04-03T15:00:06;2.33;;;1.83;;
61704;SDS011;47627;48.078;11.522;2023-04-03T15:02:33;4.45;;;2.10;;
61704;SDS011;47627;48.078;11.522;2023-04-03T15:04:59;5.75;;;2.53;;
61704;SDS011;47627;48.078;11.522;2023-04-03T15:07:25;4.57;;;2.00;;
61704;SDS011;47627;48.078;11.522;2023-04-03T15:09:51;2.92;;;1.83;;
61704;SDS011;47627;48.078;11.522;2023-04-03T15:12:17;2.88;;;1.83;;
61704;SDS011;47627;48.078;11.522;2023-04-03T15:14:42;6.00;;;2.20;;
61704;SDS011;47627;48.078;11.522;2023-04-03T15:17:10;3.17;;;2.05;;
61704;SDS011;47627;48.078;11.522;2023-04-03T15:19:38;5.07;;;2.20;;
61704;SDS011;47627;48.078;11.522;2023-04-03T15:22:03;4.00;;;2.30;;
61704;SDS011;47627;48.078;11.522;2023-04-03T15:24:28;4.03;;;2.00;;
61704;SDS011;47627;48.078;11.522;2023-04-03T15:26:54;4.75;;;2.80;;
61704;SDS011;47627;48.078;11.522;2023-04-03T15:29:19;4.47;;;1.95;;
61704;SDS011;47627;48.078;11.522;2023-04-03T15:31:44;3.58;;;2.38;;
61704;SDS011;47627;48.078;11.522;2023-04-03T15:34:09;2.72;;;1.90;;
61704;SDS011;47627;48.078;11.522;2023-04-03T15:36:35;4.22;;;2.00;;
61704;SDS011;47627;48.078;11.522;2023-04-03T15:39:00;2.70;;;1.85;;
61704;SDS011;47627;48.078;11.522;2023-04-03T15:41:25;3.40;;;2.10;;
61704;SDS011;47627;48.078;11.522;2023-04-03T15:43:51;3.42;;;2.28;;
61704;SDS011;47627;48.078;11.522;2023-04-03T15:46:16;4.43;;;2.20;;
61704;SDS011;47627;48.078;11.522;2023-04-03T15:48:41;2.60;;;1.88;;